sensor_id;sensor_type;location;lat;lon;timestamp;temperature;humidity
5881;DHT22;2966;52.598;10.928;2022-07-04T00:01:02;16.00;99.90
5881;DHT22;2966;52.598;10.928;2022-07-04T00:03:29;15.90;99.90
5881;DHT22;2966;52.598;10.928;2022-07-04T00:05:55;15.90;99.90
5881;DHT22;2966;52.598;10.928;2022-07-04T00:08:23;15.80;99.90
5881;DHT22;2966;52.598;10.928;2022-07-04T00:10:50;15.90;99.90
5881;DHT22;2966;52.598;10.928;2022-07-04T00:13:17;15.80;99.90
5881;DHT22;2966;52.598;10.928;2022-07-04T00:15:43;15.80;99.90
5881;DHT22;2966;52.598;10.928;2022-07-04T00:18:10;15.80;99.90
5881;DHT22;2966;52.598;10.928;2022-07-04T00:20:37;15.70;99.90
5881;DHT22;2966;52.598;10.928;2022-07-04T00:23:03;15.70;99.90
5881;DHT22;2966;52.598;10.928;2022-07-04T00:25:31;15.70;99.90
5881;DHT22;2966;52.598;10.928;2022-07-04T00:27:58;15.60;99.90
5881;DHT22;2966;52.598;10.928;2022-07-04T00:30:24;15.60;99.90
5881;DHT22;2966;52.598;10.928;2022-07-04T00:32:51;15.50;99.90
5881;DHT22;2966;52.598;10.928;2022-07-04T00:35:18;15.50;99.90
5881;DHT22;2966;52.598;10.928;2022-07-04T00:37:45;15.40;99.90
5881;DHT22;2966;52.598;10.928;2022-07-04T00:40:12;15.40;99.90
5881;DHT22;2966;52.598;10.928;2022-07-04T00:42:40;15.30;99.90
5881;DHT22;2966;52.598;10.928;2022-07-04T00:45:07;15.30;99.90
5881;DHT22;2966;52.598;10.928;2022-07-04T00:47:34;15.40;99.90
5881;DHT22;2966;52.598;10.928;2022-07-04T00:50:01;15.40;99.90
5881;DHT22;2966;52.598;10.928;2022-07-04T00:52:28;15.30;99.90
5881;DHT22;2966;52.598;10.928;2022-07-04T00:54:54;15.30;99.90
5881;DHT22;2966;52.598;10.928;2022-07-04T00:57:22;15.30;99.90
5881;DHT22;2966;52.598;10.928;2022-07-04T00:59:49;15.30;99.90
5881;DHT22;2966;52.598;10.928;2022-07-04T01:02:16;15.30;99.90
5881;DHT22;2966;52.598;10.928;2022-07-04T01:04:43;15.30;99.90
5881;DHT22;2966;52.598;10.928;2022-07-04T01:07:11;15.20;99.90
5881;DHT22;2966;52.598;10.928;2022-07-04T01:09:38;15.20;99.90
5881;DHT22;2966;52.598;10.928;2022-07-04T01:12:05;15.20;99.90
5881;DHT22;2966;52.598;10.928;2022-07-04T01:14:33;15.20;99.90
5881;DHT22;2966;52.598;10.928;2022-07-04T01:17:04;15.10;99.90
5881;DHT22;2966;52.598;10.928;2022-07-04T01:19:31;15.10;99.90
5881;DHT22;2966;52.598;10.928;2022-07-04T01:22:03;15.10;99.90
5881;DHT22;2966;52.598;10.928;2022-07-04T01:24:31;15.10;99.90
5881;DHT22;2966;52.598;10.928;2022-07-04T01:26:58;15.20;99.90
5881;DHT22;2966;52.598;10.928;2022-07-04T01:29:24;15.20;99.90
5881;DHT22;2966;52.598;10.928;2022-07-04T01:31:51;15.20;99.90
5881;DHT22;2966;52.598;10.928;2022-07-04T01:34:19;15.10;99.90
5881;DHT22;2966;52.598;10.928;2022-07-04T01:36:46;15.10;99.90
5881;DHT22;2966;52.598;10.928;2022-07-04T01:39:13;15.10;99.90
5881;DHT22;2966;52.598;10.928;2022-07-04T01:41:40;15.00;99.90
5881;DHT22;2966;52.598;10.928;2022-07-04T01:44:07;15.00;99.90
5881;DHT22;2966;52.598;10.928;2022-07-04T01:46:33;15.00;99.90
5881;DHT22;2966;52.598;10.928;2022-07-04T01:49:00;15.00;99.90
5881;DHT22;2966;52.598;10.928;2022-07-04T01:51:27;14.90;99.90
5881;DHT22;2966;52.598;10.928;2022-07-04T01:53:53;14.90;99.90
5881;DHT22;2966;52.598;10.928;2022-07-04T01:56:21;14.80;99.90
5881;DHT22;2966;52.598;10.928;2022-07-04T01:58:48;14.80;99.90
5881;DHT22;2966;52.598;10.928;2022-07-04T02:01:14;14.70;99.90
5881;DHT22;2966;52.598;10.928;2022-07-04T02:03:55;14.70;99.90
5881;DHT22;2966;52.598;10.928;2022-07-04T02:06:22;14.60;99.90
5881;DHT22;2966;52.598;10.928;2022-07-04T02:08:48;14.60;99.90
5881;DHT22;2966;52.598;10.928;2022-07-04T02:11:34;14.60;99.90
5881;DHT22;2966;52.598;10.928;2022-07-04T02:14:15;14.40;99.90
5881;DHT22;2966;52.598;10.928;2022-07-04T02:16:42;14.30;99.90
5881;DHT22;2966;52.598;10.928;2022-07-04T02:19:08;14.40;99.90
5881;DHT22;2966;52.598;10.928;2022-07-04T02:21:35;14.30;99.90
5881;DHT22;2966;52.598;10.928;2022-07-04T02:24:02;14.20;99.90
5881;DHT22;2966;52.598;10.928;2022-07-04T02:26:29;14.10;99.90
5881;DHT22;2966;52.598;10.928;2022-07-04T02:28:57;14.00;99.90
5881;DHT22;2966;52.598;10.928;2022-07-04T02:31:24;13.90;99.90
5881;DHT22;2966;52.598;10.928;2022-07-04T02:33:50;13.90;99.90
5881;DHT22;2966;52.598;10.928;2022-07-04T02:36:17;13.90;99.90
5881;DHT22;2966;52.598;10.928;2022-07-04T02:38:44;13.90;99.90
5881;DHT22;2966;52.598;10.928;2022-07-04T02:41:10;13.90;99.90
5881;DHT22;2966;52.598;10.928;2022-07-04T02:43:37;13.80;99.90
5881;DHT22;2966;52.598;10.928;2022-07-04T02:46:05;13.80;99.90
5881;DHT22;2966;52.598;10.928;2022-07-04T02:48:31;13.80;99.90
5881;DHT22;2966;52.598;10.928;2022-07-04T02:50:58;13.80;99.90
5881;DHT22;2966;52.598;10.928;2022-07-04T02:53:25;13.70;99.90
5881;DHT22;2966;52.598;10.928;2022-07-04T02:55:52;13.60;99.90
5881;DHT22;2966;52.598;10.928;2022-07-04T02:58:18;13.70;99.90
5881;DHT22;2966;52.598;10.928;2022-07-04T03:00:45;13.60;99.90
5881;DHT22;2966;52.598;10.928;2022-07-04T03:03:13;13.60;99.90
5881;DHT22;2966;52.598;10.928;2022-07-04T03:05:39;13.60;99.90
5881;DHT22;2966;52.598;10.928;2022-07-04T03:08:06;13.50;99.90
5881;DHT22;2966;52.598;10.928;2022-07-04T03:10:33;13.50;99.90
5881;DHT22;2966;52.598;10.928;2022-07-04T03:12:59;13.60;99.90
5881;DHT22;2966;52.598;10.928;2022-07-04T03:15:26;13.60;99.90
5881;DHT22;2966;52.598;10.928;2022-07-04T03:17:53;13.60;99.90
5881;DHT22;2966;52.598;10.928;2022-07-04T03:20:20;13.60;99.90
5881;DHT22;2966;52.598;10.928;2022-07-04T03:22:47;13.60;99.90
5881;DHT22;2966;52.598;10.928;2022-07-04T03:25:14;13.60;99.90
5881;DHT22;2966;52.598;10.928;2022-07-04T03:27:40;13.60;99.90
5881;DHT22;2966;52.598;10.928;2022-07-04T03:30:07;13.50;99.90
5881;DHT22;2966;52.598;10.928;2022-07-04T03:32:34;13.50;99.90
5881;DHT22;2966;52.598;10.928;2022-07-04T03:35:01;13.50;99.90
5881;DHT22;2966;52.598;10.928;2022-07-04T03:37:29;13.50;99.90
5881;DHT22;2966;52.598;10.928;2022-07-04T03:39:56;13.50;99.90
5881;DHT22;2966;52.598;10.928;2022-07-04T03:42:22;13.40;99.90
5881;DHT22;2966;52.598;10.928;2022-07-04T03:44:49;13.50;99.90
5881;DHT22;2966;52.598;10.928;2022-07-04T03:47:16;13.50;99.90
5881;DHT22;2966;52.598;10.928;2022-07-04T03:49:42;13.50;99.90
5881;DHT22;2966;52.598;10.928;2022-07-04T03:52:10;13.50;99.90
5881;DHT22;2966;52.598;10.928;2022-07-04T03:54:38;13.60;99.90
5881;DHT22;2966;52.598;10.928;2022-07-04T03:57:05;13.60;99.90
5881;DHT22;2966;52.598;10.928;2022-07-04T03:59:32;13.60;99.90
5881;DHT22;2966;52.598;10.928;2022-07-04T04:01:58;13.70;99.90
5881;DHT22;2966;52.598;10.928;2022-07-04T04:04:25;13.70;99.90
5881;DHT22;2966;52.598;10.928;2022-07-04T04:07:09;13.70;99.90
5881;DHT22;2966;52.598;10.928;2022-07-04T04:09:37;13.70;99.90
5881;DHT22;2966;52.598;10.928;2022-07-04T04:12:04;13.70;99.90
5881;DHT22;2966;52.598;10.928;2022-07-04T04:14:31;13.70;99.90
5881;DHT22;2966;52.598;10.928;2022-07-04T04:16:58;13.70;99.90
5881;DHT22;2966;52.598;10.928;2022-07-04T04:19:24;13.70;99.90
5881;DHT22;2966;52.598;10.928;2022-07-04T04:21:51;13.70;99.90
5881;DHT22;2966;52.598;10.928;2022-07-04T04:24:18;13.80;99.90
5881;DHT22;2966;52.598;10.928;2022-07-04T04:26:46;13.80;99.90
5881;DHT22;2966;52.598;10.928;2022-07-04T04:29:12;13.90;99.90
5881;DHT22;2966;52.598;10.928;2022-07-04T04:31:39;13.90;99.90
5881;DHT22;2966;52.598;10.928;2022-07-04T04:34:06;13.90;99.90
5881;DHT22;2966;52.598;10.928;2022-07-04T04:36:33;14.00;99.90
5881;DHT22;2966;52.598;10.928;2022-07-04T04:38:59;14.10;99.90
5881;DHT22;2966;52.598;10.928;2022-07-04T04:41:26;14.10;99.90
5881;DHT22;2966;52.598;10.928;2022-07-04T04:43:54;14.20;99.90
5881;DHT22;2966;52.598;10.928;2022-07-04T04:46:21;14.20;99.90
5881;DHT22;2966;52.598;10.928;2022-07-04T04:48:48;14.30;99.90
5881;DHT22;2966;52.598;10.928;2022-07-04T04:51:14;14.30;99.90
5881;DHT22;2966;52.598;10.928;2022-07-04T04:53:41;14.40;99.90
5881;DHT22;2966;52.598;10.928;2022-07-04T04:56:08;14.50;99.90
5881;DHT22;2966;52.598;10.928;2022-07-04T04:58:34;14.50;99.90
5881;DHT22;2966;52.598;10.928;2022-07-04T05:01:02;14.70;99.90
5881;DHT22;2966;52.598;10.928;2022-07-04T05:03:29;14.90;99.90
5881;DHT22;2966;52.598;10.928;2022-07-04T05:05:57;14.90;99.90
5881;DHT22;2966;52.598;10.928;2022-07-04T05:08:23;15.10;99.90
5881;DHT22;2966;52.598;10.928;2022-07-04T05:10:51;15.20;99.90
5881;DHT22;2966;52.598;10.928;2022-07-04T05:13:18;15.30;99.90
5881;DHT22;2966;52.598;10.928;2022-07-04T05:15:45;15.50;99.90
5881;DHT22;2966;52.598;10.928;2022-07-04T05:18:14;15.50;99.90
5881;DHT22;2966;52.598;10.928;2022-07-04T05:20:41;15.60;99.90
5881;DHT22;2966;52.598;10.928;2022-07-04T05:23:08;15.80;99.90
5881;DHT22;2966;52.598;10.928;2022-07-04T05:25:34;15.80;99.90
5881;DHT22;2966;52.598;10.928;2022-07-04T05:28:01;15.80;99.90
5881;DHT22;2966;52.598;10.928;2022-07-04T05:30:27;15.90;99.90
5881;DHT22;2966;52.598;10.928;2022-07-04T05:32:54;15.90;99.90
5881;DHT22;2966;52.598;10.928;2022-07-04T05:35:22;16.00;99.90
5881;DHT22;2966;52.598;10.928;2022-07-04T05:37:49;16.20;99.90
5881;DHT22;2966;52.598;10.928;2022-07-04T05:40:15;16.30;99.90
5881;DHT22;2966;52.598;10.928;2022-07-04T05:42:42;16.30;99.90
5881;DHT22;2966;52.598;10.928;2022-07-04T05:45:09;16.40;99.90
5881;DHT22;2966;52.598;10.928;2022-07-04T05:47:36;16.50;99.90
5881;DHT22;2966;52.598;10.928;2022-07-04T05:50:04;16.60;99.90
5881;DHT22;2966;52.598;10.928;2022-07-04T05:52:32;16.70;99.90
5881;DHT22;2966;52.598;10.928;2022-07-04T05:54:58;16.80;99.90
5881;DHT22;2966;52.598;10.928;2022-07-04T05:57:25;16.90;99.90
5881;DHT22;2966;52.598;10.928;2022-07-04T05:59:52;16.90;99.90
5881;DHT22;2966;52.598;10.928;2022-07-04T06:02:19;16.90;99.90
5881;DHT22;2966;52.598;10.928;2022-07-04T06:04:46;16.90;99.90
5881;DHT22;2966;52.598;10.928;2022-07-04T06:07:12;17.10;99.90
5881;DHT22;2966;52.598;10.928;2022-07-04T06:09:40;17.20;99.90
5881;DHT22;2966;52.598;10.928;2022-07-04T06:12:07;17.30;99.90
5881;DHT22;2966;52.598;10.928;2022-07-04T06:14:34;17.40;99.90
5881;DHT22;2966;52.598;10.928;2022-07-04T06:17:01;17.50;99.90
5881;DHT22;2966;52.598;10.928;2022-07-04T06:19:27;17.60;99.90
5881;DHT22;2966;52.598;10.928;2022-07-04T06:21:54;17.70;99.90
5881;DHT22;2966;52.598;10.928;2022-07-04T06:24:21;17.80;99.90
5881;DHT22;2966;52.598;10.928;2022-07-04T06:26:49;17.90;99.90
5881;DHT22;2966;52.598;10.928;2022-07-04T06:29:16;17.80;99.90
5881;DHT22;2966;52.598;10.928;2022-07-04T06:31:43;17.80;99.90
5881;DHT22;2966;52.598;10.928;2022-07-04T06:34:09;17.90;99.90
5881;DHT22;2966;52.598;10.928;2022-07-04T06:36:53;18.00;99.90
5881;DHT22;2966;52.598;10.928;2022-07-04T06:39:20;18.20;99.90
5881;DHT22;2966;52.598;10.928;2022-07-04T06:41:47;18.20;99.90
5881;DHT22;2966;52.598;10.928;2022-07-04T06:44:14;18.20;99.90
5881;DHT22;2966;52.598;10.928;2022-07-04T06:46:41;18.10;99.90
5881;DHT22;2966;52.598;10.928;2022-07-04T06:49:09;18.20;99.90
5881;DHT22;2966;52.598;10.928;2022-07-04T06:51:36;18.10;99.90
5881;DHT22;2966;52.598;10.928;2022-07-04T06:54:03;18.40;99.90
5881;DHT22;2966;52.598;10.928;2022-07-04T06:56:29;18.60;99.90
5881;DHT22;2966;52.598;10.928;2022-07-04T06:58:56;18.60;99.90
5881;DHT22;2966;52.598;10.928;2022-07-04T07:01:24;18.70;99.90
5881;DHT22;2966;52.598;10.928;2022-07-04T07:03:51;18.60;99.90
5881;DHT22;2966;52.598;10.928;2022-07-04T07:06:18;18.50;99.90
5881;DHT22;2966;52.598;10.928;2022-07-04T07:08:44;18.70;99.90
5881;DHT22;2966;52.598;10.928;2022-07-04T07:11:11;18.90;99.90
5881;DHT22;2966;52.598;10.928;2022-07-04T07:13:47;19.10;99.90
5881;DHT22;2966;52.598;10.928;2022-07-04T07:16:15;19.10;99.90
5881;DHT22;2966;52.598;10.928;2022-07-04T07:18:43;19.20;99.90
5881;DHT22;2966;52.598;10.928;2022-07-04T07:21:10;19.30;99.90
5881;DHT22;2966;52.598;10.928;2022-07-04T07:23:40;19.30;99.90
5881;DHT22;2966;52.598;10.928;2022-07-04T07:26:07;19.50;99.90
5881;DHT22;2966;52.598;10.928;2022-07-04T07:28:34;19.40;99.90
5881;DHT22;2966;52.598;10.928;2022-07-04T07:31:01;19.50;99.90
5881;DHT22;2966;52.598;10.928;2022-07-04T07:33:28;19.50;99.90
5881;DHT22;2966;52.598;10.928;2022-07-04T07:35:56;19.30;99.90
5881;DHT22;2966;52.598;10.928;2022-07-04T07:38:23;19.10;99.90
5881;DHT22;2966;52.598;10.928;2022-07-04T07:40:49;19.30;99.90
5881;DHT22;2966;52.598;10.928;2022-07-04T07:43:17;19.30;99.90
5881;DHT22;2966;52.598;10.928;2022-07-04T07:45:43;19.50;99.90
5881;DHT22;2966;52.598;10.928;2022-07-04T07:48:10;19.60;99.90
5881;DHT22;2966;52.598;10.928;2022-07-04T07:50:36;20.00;99.90
5881;DHT22;2966;52.598;10.928;2022-07-04T07:53:04;20.10;99.90
5881;DHT22;2966;52.598;10.928;2022-07-04T07:55:31;20.00;99.90
5881;DHT22;2966;52.598;10.928;2022-07-04T07:57:58;19.60;99.90
5881;DHT22;2966;52.598;10.928;2022-07-04T08:00:25;19.40;99.90
5881;DHT22;2966;52.598;10.928;2022-07-04T08:02:52;19.50;99.90
5881;DHT22;2966;52.598;10.928;2022-07-04T08:05:37;19.70;99.90
5881;DHT22;2966;52.598;10.928;2022-07-04T08:08:05;19.60;99.90
5881;DHT22;2966;52.598;10.928;2022-07-04T08:10:35;19.70;99.90
5881;DHT22;2966;52.598;10.928;2022-07-04T08:13:02;19.80;99.90
5881;DHT22;2966;52.598;10.928;2022-07-04T08:15:29;19.90;99.90
5881;DHT22;2966;52.598;10.928;2022-07-04T08:17:55;20.20;99.90
5881;DHT22;2966;52.598;10.928;2022-07-04T08:20:22;20.40;99.90
5881;DHT22;2966;52.598;10.928;2022-07-04T08:22:49;20.20;99.90
5881;DHT22;2966;52.598;10.928;2022-07-04T08:25:17;19.90;99.90
5881;DHT22;2966;52.598;10.928;2022-07-04T08:27:43;19.80;99.90
5881;DHT22;2966;52.598;10.928;2022-07-04T08:30:10;19.90;99.90
5881;DHT22;2966;52.598;10.928;2022-07-04T08:32:37;20.00;99.90
5881;DHT22;2966;52.598;10.928;2022-07-04T08:35:05;20.00;99.90
5881;DHT22;2966;52.598;10.928;2022-07-04T08:37:31;19.70;99.90
5881;DHT22;2966;52.598;10.928;2022-07-04T08:39:58;20.30;99.90
5881;DHT22;2966;52.598;10.928;2022-07-04T08:42:29;20.50;99.90
5881;DHT22;2966;52.598;10.928;2022-07-04T08:44:58;20.90;99.90
5881;DHT22;2966;52.598;10.928;2022-07-04T08:47:27;21.20;99.90
5881;DHT22;2966;52.598;10.928;2022-07-04T08:50:01;21.00;99.90
5881;DHT22;2966;52.598;10.928;2022-07-04T08:52:35;20.90;99.90
5881;DHT22;2966;52.598;10.928;2022-07-04T08:55:03;21.00;99.90
5881;DHT22;2966;52.598;10.928;2022-07-04T08:57:51;20.50;99.90
5881;DHT22;2966;52.598;10.928;2022-07-04T09:00:35;20.50;99.90
5881;DHT22;2966;52.598;10.928;2022-07-04T09:03:03;20.70;99.90
5881;DHT22;2966;52.598;10.928;2022-07-04T09:05:30;21.00;99.90
5881;DHT22;2966;52.598;10.928;2022-07-04T09:07:58;21.00;99.90
5881;DHT22;2966;52.598;10.928;2022-07-04T09:10:25;21.00;99.90
5881;DHT22;2966;52.598;10.928;2022-07-04T09:12:54;21.10;99.90
5881;DHT22;2966;52.598;10.928;2022-07-04T09:15:20;20.80;99.90
5881;DHT22;2966;52.598;10.928;2022-07-04T09:17:47;20.60;99.90
5881;DHT22;2966;52.598;10.928;2022-07-04T09:20:16;20.80;99.90
5881;DHT22;2966;52.598;10.928;2022-07-04T09:22:43;20.60;99.90
5881;DHT22;2966;52.598;10.928;2022-07-04T09:25:10;20.30;99.90
5881;DHT22;2966;52.598;10.928;2022-07-04T09:27:41;20.60;99.90
5881;DHT22;2966;52.598;10.928;2022-07-04T09:30:14;21.00;99.90
5881;DHT22;2966;52.598;10.928;2022-07-04T09:32:44;21.00;99.90
5881;DHT22;2966;52.598;10.928;2022-07-04T09:35:11;20.70;99.90
5881;DHT22;2966;52.598;10.928;2022-07-04T09:37:40;20.30;99.90
5881;DHT22;2966;52.598;10.928;2022-07-04T09:40:08;20.10;99.90
5881;DHT22;2966;52.598;10.928;2022-07-04T09:42:37;20.40;99.90
5881;DHT22;2966;52.598;10.928;2022-07-04T09:45:06;21.00;99.90
5881;DHT22;2966;52.598;10.928;2022-07-04T09:47:34;21.40;99.90
5881;DHT22;2966;52.598;10.928;2022-07-04T09:50:03;21.00;99.90
5881;DHT22;2966;52.598;10.928;2022-07-04T09:52:30;20.80;99.90
5881;DHT22;2966;52.598;10.928;2022-07-04T09:54:58;21.10;99.90
5881;DHT22;2966;52.598;10.928;2022-07-04T09:57:25;21.50;99.90
5881;DHT22;2966;52.598;10.928;2022-07-04T09:59:52;21.80;99.90
5881;DHT22;2966;52.598;10.928;2022-07-04T10:02:18;22.00;99.90
5881;DHT22;2966;52.598;10.928;2022-07-04T10:04:48;22.30;99.90
5881;DHT22;2966;52.598;10.928;2022-07-04T10:07:33;22.50;99.90
5881;DHT22;2966;52.598;10.928;2022-07-04T10:10:20;22.50;99.90
5881;DHT22;2966;52.598;10.928;2022-07-04T10:12:48;22.40;99.90
5881;DHT22;2966;52.598;10.928;2022-07-04T10:15:15;22.30;99.90
5881;DHT22;2966;52.598;10.928;2022-07-04T10:17:42;22.00;99.90
5881;DHT22;2966;52.598;10.928;2022-07-04T10:20:12;22.10;99.90
5881;DHT22;2966;52.598;10.928;2022-07-04T10:22:38;22.50;99.90
5881;DHT22;2966;52.598;10.928;2022-07-04T10:25:08;22.60;99.90
5881;DHT22;2966;52.598;10.928;2022-07-04T10:27:35;22.60;99.90
5881;DHT22;2966;52.598;10.928;2022-07-04T10:30:05;22.70;99.90
5881;DHT22;2966;52.598;10.928;2022-07-04T10:32:33;22.70;99.90
5881;DHT22;2966;52.598;10.928;2022-07-04T10:35:00;22.80;99.90
5881;DHT22;2966;52.598;10.928;2022-07-04T10:37:59;22.70;99.90
5881;DHT22;2966;52.598;10.928;2022-07-04T10:40:43;22.60;99.90
5881;DHT22;2966;52.598;10.928;2022-07-04T10:46:43;21.90;99.90
5881;DHT22;2966;52.598;10.928;2022-07-04T10:49:22;22.00;99.90
5881;DHT22;2966;52.598;10.928;2022-07-04T10:51:51;22.10;99.90
5881;DHT22;2966;52.598;10.928;2022-07-04T10:54:21;22.10;99.90
5881;DHT22;2966;52.598;10.928;2022-07-04T10:56:52;22.10;99.90
5881;DHT22;2966;52.598;10.928;2022-07-04T10:59:22;22.40;99.90
5881;DHT22;2966;52.598;10.928;2022-07-04T11:04:50;22.60;99.90
5881;DHT22;2966;52.598;10.928;2022-07-04T11:07:17;22.60;99.90
5881;DHT22;2966;52.598;10.928;2022-07-04T11:09:46;22.30;99.90
5881;DHT22;2966;52.598;10.928;2022-07-04T11:12:33;22.50;99.90
5881;DHT22;2966;52.598;10.928;2022-07-04T11:15:16;22.70;99.90
5881;DHT22;2966;52.598;10.928;2022-07-04T11:17:43;23.10;99.90
5881;DHT22;2966;52.598;10.928;2022-07-04T11:20:11;23.20;99.90
5881;DHT22;2966;52.598;10.928;2022-07-04T11:22:37;23.30;99.90
5881;DHT22;2966;52.598;10.928;2022-07-04T11:25:06;23.20;99.90
5881;DHT22;2966;52.598;10.928;2022-07-04T11:27:33;23.10;99.90
5881;DHT22;2966;52.598;10.928;2022-07-04T11:30:00;23.20;99.90
5881;DHT22;2966;52.598;10.928;2022-07-04T11:32:30;23.40;99.90
5881;DHT22;2966;52.598;10.928;2022-07-04T11:34:57;23.40;99.90
5881;DHT22;2966;52.598;10.928;2022-07-04T11:37:24;23.30;99.90
5881;DHT22;2966;52.598;10.928;2022-07-04T11:39:51;23.40;99.90
5881;DHT22;2966;52.598;10.928;2022-07-04T11:42:19;23.40;99.90
5881;DHT22;2966;52.598;10.928;2022-07-04T11:45:04;23.60;99.90
5881;DHT22;2966;52.598;10.928;2022-07-04T11:47:33;23.70;99.90
5881;DHT22;2966;52.598;10.928;2022-07-04T11:50:02;23.60;99.90
5881;DHT22;2966;52.598;10.928;2022-07-04T11:52:30;23.70;99.90
5881;DHT22;2966;52.598;10.928;2022-07-04T11:54:59;23.80;99.90
5881;DHT22;2966;52.598;10.928;2022-07-04T11:57:29;23.40;99.30
5881;DHT22;2966;52.598;10.928;2022-07-04T11:59:58;22.70;99.90
5881;DHT22;2966;52.598;10.928;2022-07-04T12:02:26;22.50;99.90
5881;DHT22;2966;52.598;10.928;2022-07-04T12:04:53;22.90;99.90
5881;DHT22;2966;52.598;10.928;2022-07-04T12:07:23;23.40;99.90
5881;DHT22;2966;52.598;10.928;2022-07-04T12:09:51;23.60;99.90
5881;DHT22;2966;52.598;10.928;2022-07-04T12:12:21;23.60;99.80
5881;DHT22;2966;52.598;10.928;2022-07-04T12:15:01;23.60;99.50
5881;DHT22;2966;52.598;10.928;2022-07-04T12:17:33;23.80;98.80
5881;DHT22;2966;52.598;10.928;2022-07-04T12:20:02;24.10;99.90
5881;DHT22;2966;52.598;10.928;2022-07-04T12:22:35;24.20;99.90
5881;DHT22;2966;52.598;10.928;2022-07-04T12:25:26;24.50;98.60
5881;DHT22;2966;52.598;10.928;2022-07-04T12:27:57;24.50;99.90
5881;DHT22;2966;52.598;10.928;2022-07-04T12:30:27;24.10;99.20
5881;DHT22;2966;52.598;10.928;2022-07-04T12:32:58;23.70;98.90
5881;DHT22;2966;52.598;10.928;2022-07-04T12:35:38;23.10;99.90
5881;DHT22;2966;52.598;10.928;2022-07-04T12:38:06;23.30;99.90
5881;DHT22;2966;52.598;10.928;2022-07-04T12:40:34;23.70;99.90
5881;DHT22;2966;52.598;10.928;2022-07-04T12:43:01;24.10;99.90
5881;DHT22;2966;52.598;10.928;2022-07-04T12:45:42;24.50;99.40
5881;DHT22;2966;52.598;10.928;2022-07-04T12:48:17;24.60;98.80
5881;DHT22;2966;52.598;10.928;2022-07-04T12:50:44;24.60;98.90
5881;DHT22;2966;52.598;10.928;2022-07-04T12:53:11;24.10;98.10
5881;DHT22;2966;52.598;10.928;2022-07-04T12:55:38;23.40;99.70
5881;DHT22;2966;52.598;10.928;2022-07-04T12:58:06;23.10;99.80
5881;DHT22;2966;52.598;10.928;2022-07-04T13:00:33;23.10;99.90
5881;DHT22;2966;52.598;10.928;2022-07-04T13:03:01;22.90;98.40
5881;DHT22;2966;52.598;10.928;2022-07-04T13:05:27;22.60;99.60
5881;DHT22;2966;52.598;10.928;2022-07-04T13:07:54;22.60;99.90
5881;DHT22;2966;52.598;10.928;2022-07-04T13:10:21;22.90;99.50
5881;DHT22;2966;52.598;10.928;2022-07-04T13:12:47;23.00;99.90
5881;DHT22;2966;52.598;10.928;2022-07-04T13:15:14;23.00;99.90
5881;DHT22;2966;52.598;10.928;2022-07-04T13:17:41;23.60;99.80
5881;DHT22;2966;52.598;10.928;2022-07-04T13:20:10;23.50;97.70
5881;DHT22;2966;52.598;10.928;2022-07-04T13:22:38;23.50;98.50
5881;DHT22;2966;52.598;10.928;2022-07-04T13:25:05;23.40;99.70
5881;DHT22;2966;52.598;10.928;2022-07-04T13:27:33;23.40;99.90
5881;DHT22;2966;52.598;10.928;2022-07-04T13:29:59;23.20;99.90
5881;DHT22;2966;52.598;10.928;2022-07-04T13:32:26;23.00;99.90
5881;DHT22;2966;52.598;10.928;2022-07-04T13:34:53;23.00;99.90
5881;DHT22;2966;52.598;10.928;2022-07-04T13:37:21;23.20;99.90
5881;DHT22;2966;52.598;10.928;2022-07-04T13:39:48;23.60;99.90
5881;DHT22;2966;52.598;10.928;2022-07-04T13:42:14;24.30;99.90
5881;DHT22;2966;52.598;10.928;2022-07-04T13:45:01;24.90;99.90
5881;DHT22;2966;52.598;10.928;2022-07-04T13:47:28;25.10;99.90
5881;DHT22;2966;52.598;10.928;2022-07-04T13:49:55;24.80;99.90
5881;DHT22;2966;52.598;10.928;2022-07-04T13:52:23;24.60;97.30
5881;DHT22;2966;52.598;10.928;2022-07-04T13:54:49;24.30;98.10
5881;DHT22;2966;52.598;10.928;2022-07-04T13:57:16;24.00;96.80
5881;DHT22;2966;52.598;10.928;2022-07-04T13:59:43;23.70;97.20
5881;DHT22;2966;52.598;10.928;2022-07-04T14:02:10;23.30;98.60
5881;DHT22;2966;52.598;10.928;2022-07-04T14:04:36;23.50;99.90
5881;DHT22;2966;52.598;10.928;2022-07-04T14:07:03;23.90;97.50
5881;DHT22;2966;52.598;10.928;2022-07-04T14:09:31;23.70;98.80
5881;DHT22;2966;52.598;10.928;2022-07-04T14:11:58;24.40;99.90
5881;DHT22;2966;52.598;10.928;2022-07-04T14:14:24;24.30;98.20
5881;DHT22;2966;52.598;10.928;2022-07-04T14:16:52;23.90;99.20
5881;DHT22;2966;52.598;10.928;2022-07-04T14:19:18;23.70;99.10
5881;DHT22;2966;52.598;10.928;2022-07-04T14:21:45;23.60;99.60
5881;DHT22;2966;52.598;10.928;2022-07-04T14:24:11;23.80;99.90
5881;DHT22;2966;52.598;10.928;2022-07-04T14:26:41;24.50;99.90
5881;DHT22;2966;52.598;10.928;2022-07-04T14:29:08;25.30;99.90
5881;DHT22;2966;52.598;10.928;2022-07-04T14:31:35;25.80;98.40
5881;DHT22;2966;52.598;10.928;2022-07-04T14:34:01;26.20;97.40
5881;DHT22;2966;52.598;10.928;2022-07-04T14:36:28;26.40;96.40
5881;DHT22;2966;52.598;10.928;2022-07-04T14:38:55;26.70;93.20
5881;DHT22;2966;52.598;10.928;2022-07-04T14:41:22;26.50;98.40
5881;DHT22;2966;52.598;10.928;2022-07-04T14:43:52;26.40;96.80
5881;DHT22;2966;52.598;10.928;2022-07-04T14:46:20;26.20;97.80
5881;DHT22;2966;52.598;10.928;2022-07-04T14:48:46;26.50;94.50
5881;DHT22;2966;52.598;10.928;2022-07-04T14:51:13;26.20;94.40
5881;DHT22;2966;52.598;10.928;2022-07-04T14:53:40;26.60;95.30
5881;DHT22;2966;52.598;10.928;2022-07-04T14:56:07;26.70;92.00
5881;DHT22;2966;52.598;10.928;2022-07-04T14:58:34;27.00;93.60
5881;DHT22;2966;52.598;10.928;2022-07-04T15:01:02;26.30;94.60
5881;DHT22;2966;52.598;10.928;2022-07-04T15:03:28;26.50;93.80
5881;DHT22;2966;52.598;10.928;2022-07-04T15:05:55;27.30;93.70
5881;DHT22;2966;52.598;10.928;2022-07-04T15:08:22;28.10;93.40
5881;DHT22;2966;52.598;10.928;2022-07-04T15:10:49;27.30;96.10
5881;DHT22;2966;52.598;10.928;2022-07-04T15:13:16;27.50;94.50
5881;DHT22;2966;52.598;10.928;2022-07-04T15:15:43;27.30;93.40
5881;DHT22;2966;52.598;10.928;2022-07-04T15:18:11;27.00;93.30
5881;DHT22;2966;52.598;10.928;2022-07-04T15:20:37;26.80;92.50
5881;DHT22;2966;52.598;10.928;2022-07-04T15:23:22;26.20;94.20
5881;DHT22;2966;52.598;10.928;2022-07-04T15:26:06;25.10;94.40
5881;DHT22;2966;52.598;10.928;2022-07-04T15:28:33;25.10;95.10
5881;DHT22;2966;52.598;10.928;2022-07-04T15:31:00;25.10;93.80
5881;DHT22;2966;52.598;10.928;2022-07-04T15:33:28;24.50;95.00
5881;DHT22;2966;52.598;10.928;2022-07-04T15:35:58;24.10;96.20
5881;DHT22;2966;52.598;10.928;2022-07-04T15:38:25;23.60;95.00
5881;DHT22;2966;52.598;10.928;2022-07-04T15:40:52;23.50;97.70
5881;DHT22;2966;52.598;10.928;2022-07-04T15:43:18;23.40;97.70
5881;DHT22;2966;52.598;10.928;2022-07-04T15:45:45;23.40;97.20
5881;DHT22;2966;52.598;10.928;2022-07-04T15:48:12;23.50;97.10
5881;DHT22;2966;52.598;10.928;2022-07-04T15:50:40;23.60;97.30
5881;DHT22;2966;52.598;10.928;2022-07-04T15:53:07;23.70;97.50
5881;DHT22;2966;52.598;10.928;2022-07-04T15:55:34;24.30;96.10
5881;DHT22;2966;52.598;10.928;2022-07-04T15:58:00;24.60;97.30